createdAt,value
2019-01-31T00:00:41.518Z,99361.59
2019-01-31T00:02:33.292Z,99363.31
2019-01-31T00:04:17.451Z,99360.02
2019-01-31T00:05:36.510Z,99360.91
2019-01-31T00:07:08.142Z,99367.20
2019-01-31T00:08:46.511Z,99365.03
2019-01-31T00:10:53.673Z,99369.96
2019-01-31T00:12:29.799Z,99370.59
2019-01-31T00:14:18.585Z,99370.09
2019-01-31T00:15:59.795Z,99370.05
2019-01-31T00:17:34.331Z,99371.56
2019-01-31T00:19:10.823Z,99375.16
2019-01-31T00:20:34.306Z,99370.84
2019-01-31T00:22:05.285Z,99373.63
2019-01-31T00:24:00.903Z,99369.58
2019-01-31T00:25:52.780Z,99370.58
2019-01-31T00:27:53.779Z,99364.44
2019-01-31T00:29:23.101Z,99371.39
2019-01-31T00:30:50.494Z,99373.47
2019-01-31T00:32:13.298Z,99376.95
2019-01-31T00:33:38.761Z,99376.04
2019-01-31T00:35:26.559Z,99378.30
2019-01-31T00:36:57.289Z,99378.36
2019-01-31T00:38:10.726Z,99381.23
2019-01-31T00:39:39.736Z,99376.52
2019-01-31T00:41:34.172Z,99377.79
2019-01-31T00:43:04.046Z,99384.41
2019-01-31T00:44:31.095Z,99382.85
2019-01-31T00:46:15.923Z,99383.09
2019-01-31T00:48:13.464Z,99383.54
2019-01-31T00:49:59.131Z,99379.62
2019-01-31T00:51:26.173Z,99386.61
2019-01-31T00:52:53.702Z,99384.70
2019-01-31T00:54:12.552Z,99391.48
2019-01-31T00:55:39.195Z,99398.67
2019-01-31T00:57:08.503Z,99395.44
2019-01-31T00:59:12.774Z,99394.20
2019-01-31T01:00:39.865Z,99399.70
2019-01-31T01:02:01.267Z,99394.34
2019-01-31T01:03:55.910Z,99396.20
2019-01-31T01:05:47.618Z,99392.84
2019-01-31T01:07:49.270Z,99386.80
2019-01-31T01:09:14.057Z,99384.27
2019-01-31T01:10:59.327Z,99384.98
2019-01-31T01:12:34.890Z,99383.89
2019-01-31T01:14:06.291Z,99383.18
2019-01-31T01:15:32.804Z,99377.34
2019-01-31T01:17:01.073Z,99381.38
2019-01-31T01:18:27.632Z,99379.73
2019-01-31T01:20:10.668Z,99385.02
2019-01-31T01:21:40.639Z,99387.25
2019-01-31T01:23:14.923Z,99381.63
2019-01-31T01:24:31.269Z,99388.38
2019-01-31T01:26:35.508Z,99384.13
2019-01-31T01:27:53.042Z,99380.69
2019-01-31T01:29:45.646Z,99380.75
2019-01-31T01:31:23.492Z,99375.53
2019-01-31T01:32:57.771Z,99379.11
2019-01-31T01:35:05.638Z,99379.23
2019-01-31T01:36:50.885Z,99376.56
2019-01-31T01:38:21.557Z,99375.84
2019-01-31T01:40:00.430Z,99377.81
2019-01-31T01:41:33.287Z,99377.77
2019-01-31T01:43:11.171Z,99373.63
2019-01-31T01:45:12.012Z,99366.20
2019-01-31T01:46:53.157Z,99363.47
2019-01-31T01:48:32.233Z,99366.09
2019-01-31T01:49:57.200Z,99367.55
2019-01-31T01:51:24.568Z,99373.53
2019-01-31T01:52:40.810Z,99366.75
2019-01-31T01:54:32.960Z,99372.66
2019-01-31T01:55:53.581Z,99373.67
2019-01-31T01:57:30.147Z,99376.31
2019-01-31T01:58:44.073Z,99377.58
2019-01-31T02:00:13.248Z,99381.66
2019-01-31T02:01:51.358Z,99381.17
2019-01-31T02:03:45.869Z,99379.25
2019-01-31T02:05:47.121Z,99382.64
2019-01-31T02:07:20.818Z,99380.56
2019-01-31T02:09:01.073Z,99380.50
2019-01-31T02:11:00.489Z,99376.78
2019-01-31T02:12:49.496Z,99374.73
2019-01-31T02:14:46.294Z,99381.20
2019-01-31T02:16:44.354Z,99377.47
2019-01-31T02:18:23.023Z,99374.91
2019-01-31T02:20:16.483Z,99368.87
2019-01-31T02:21:43.287Z,99362.55
2019-01-31T02:23:22.506Z,99356.58
2019-01-31T02:25:18.174Z,99359.51
2019-01-31T02:27:03.843Z,99363.36
2019-01-31T02:28:44.951Z,99361.08
2019-01-31T02:30:11.471Z,99356.47
2019-01-31T02:32:24.492Z,99355.36
2019-01-31T02:34:04.497Z,99361.67
2019-01-31T02:35:41.290Z,99363.93
2019-01-31T02:37:22.816Z,99360.55
2019-01-31T02:39:11.846Z,99356.19
2019-01-31T02:40:59.715Z,99355.33
2019-01-31T02:42:52.284Z,99361.09
2019-01-31T02:44:12.310Z,99354.72
2019-01-31T02:45:56.429Z,99355.64
2019-01-31T02:47:30.374Z,99354.98
2019-01-31T02:48:45.123Z,99354.90
2019-01-31T02:50:15.609Z,99356.16
2019-01-31T02:51:52.065Z,99350.59
2019-01-31T02:53:19.734Z,99356.24
2019-01-31T02:54:59.701Z,99352.11
2019-01-31T02:56:51.662Z,99355.70
2019-01-31T02:58:20.758Z,99353.31
2019-01-31T03:00:02.088Z,99356.89
2019-01-31T03:01:34.045Z,99359.72
2019-01-31T03:03:23.105Z,99352.77
2019-01-31T03:04:56.876Z,99348.80
2019-01-31T03:07:16.385Z,99350.27
2019-01-31T03:08:30.186Z,99350.97
2019-01-31T03:10:27.357Z,99356.38
2019-01-31T03:12:03.820Z,99354.56
2019-01-31T03:13:45.482Z,99360.11
2019-01-31T03:15:27.814Z,99359.34
2019-01-31T03:17:12.400Z,99359.57
2019-01-31T03:18:54.459Z,99364.08
2019-01-31T03:20:44.460Z,99359.01
2019-01-31T03:21:57.114Z,99359.03
2019-01-31T03:23:30.537Z,99356.78
2019-01-31T03:25:16.815Z,99358.81
2019-01-31T03:26:30.797Z,99353.37
2019-01-31T03:27:58.248Z,99355.70
2019-01-31T03:29:51.671Z,99354.84
2019-01-31T03:31:56.038Z,99350.31
2019-01-31T03:33:44.714Z,99350.63
2019-01-31T03:35:20.332Z,99357.23
2019-01-31T03:36:55.130Z,99359.23
2019-01-31T03:38:25.688Z,99347.05
2019-01-31T03:40:07.540Z,99345.12
2019-01-31T03:41:35.851Z,99346.84
2019-01-31T03:43:09.271Z,99350.63
2019-01-31T03:44:45.870Z,99350.26
2019-01-31T03:46:22.882Z,99350.33
2019-01-31T03:48:00.937Z,99348.40
2019-01-31T03:49:17.017Z,99346.37
2019-01-31T03:50:33.655Z,99346.57
2019-01-31T03:52:20.371Z,99345.45
2019-01-31T03:53:47.710Z,99344.45
2019-01-31T03:55:39.450Z,99354.25
2019-01-31T03:57:49.539Z,99351.98
2019-01-31T03:59:08.951Z,99354.11
2019-01-31T04:00:54.097Z,99349.91
2019-01-31T04:02:31.667Z,99344.46
2019-01-31T04:03:42.982Z,99351.25
2019-01-31T04:05:27.968Z,99354.09
2019-01-31T04:06:36.227Z,99348.91
2019-01-31T04:07:41.675Z,99349.12
2019-01-31T04:08:46.449Z,99346.30
2019-01-31T04:09:51.602Z,99340.33
2019-01-31T04:10:56.378Z,99349.17
2019-01-31T04:12:01.850Z,99346.11
2019-01-31T04:13:06.453Z,99343.52
2019-01-31T04:14:11.642Z,99346.30
2019-01-31T04:15:16.415Z,99343.38
2019-01-31T04:16:21.841Z,99337.53
2019-01-31T04:17:27.062Z,99343.36
2019-01-31T04:18:32.633Z,99350.34
2019-01-31T04:19:37.763Z,99346.09
2019-01-31T04:20:42.393Z,99349.73
2019-01-31T04:21:47.159Z,99350.47
2019-01-31T04:22:52.449Z,99350.48
2019-01-31T04:23:57.351Z,99352.47
2019-01-31T04:25:02.527Z,99349.20
2019-01-31T04:26:10.713Z,99353.05
2019-01-31T04:27:16.319Z,99352.62
2019-01-31T04:28:20.859Z,99351.17
2019-01-31T04:29:25.786Z,99349.66
2019-01-31T04:30:30.966Z,99349.66
2019-01-31T04:31:35.736Z,99351.97
2019-01-31T04:32:40.680Z,99353.14
2019-01-31T04:33:45.583Z,99355.48
2019-01-31T04:34:50.740Z,99354.62
2019-01-31T04:35:55.250Z,99359.88
2019-01-31T04:37:00.708Z,99357.02
2019-01-31T04:38:05.189Z,99358.50
2019-01-31T04:39:10.990Z,99359.36
2019-01-31T04:40:16.112Z,99358.99
2019-01-31T04:41:21.853Z,99352.47
2019-01-31T04:42:26.618Z,99360.66
2019-01-31T04:43:32.202Z,99352.44
2019-01-31T04:44:37.437Z,99355.08
2019-01-31T04:45:42.974Z,99354.28
2019-01-31T04:46:48.093Z,99351.23
2019-01-31T04:47:56.212Z,99345.32
2019-01-31T04:49:00.704Z,99347.14
2019-01-31T04:50:07.209Z,99354.09
2019-01-31T04:51:12.034Z,99347.81
2019-01-31T04:52:17.337Z,99351.27
2019-01-31T04:53:23.181Z,99350.38
2019-01-31T04:54:28.132Z,99346.73
2019-01-31T04:55:33.477Z,99346.55
2019-01-31T04:56:38.265Z,99345.94
2019-01-31T04:57:42.750Z,99351.42
2019-01-31T04:58:48.458Z,99350.68
2019-01-31T04:59:53.930Z,99351.33
2019-01-31T05:00:58.694Z,99344.41
2019-01-31T05:02:03.625Z,99354.34
2019-01-31T05:03:09.092Z,99355.88
2019-01-31T05:04:13.889Z,99351.35
2019-01-31T05:05:18.723Z,99346.05
2019-01-31T05:06:23.537Z,99354.09
2019-01-31T05:07:28.396Z,99348.19
2019-01-31T05:08:33.195Z,99347.39
2019-01-31T05:09:38.834Z,99347.84
2019-01-31T05:10:44.263Z,99347.27
2019-01-31T05:11:49.227Z,99348.53
2019-01-31T05:12:54.083Z,99349.11
2019-01-31T05:13:58.852Z,99345.19
2019-01-31T05:15:03.602Z,99353.17
2019-01-31T05:16:08.729Z,99343.09
2019-01-31T05:17:13.535Z,99344.13
2019-01-31T05:18:18.275Z,99342.14
2019-01-31T05:19:23.136Z,99342.28
2019-01-31T05:20:27.962Z,99336.69
2019-01-31T05:21:33.350Z,99341.53
2019-01-31T05:22:37.842Z,99339.09
2019-01-31T05:23:43.067Z,99337.14
2019-01-31T05:24:48.226Z,99343.00
2019-01-31T05:25:53.640Z,99339.82
2019-01-31T05:26:58.152Z,99340.73
2019-01-31T05:28:02.635Z,99340.13
2019-01-31T05:29:07.413Z,99345.47
2019-01-31T05:30:13.826Z,99345.27
2019-01-31T05:31:19.773Z,99344.35
2019-01-31T05:32:24.536Z,99338.67
2019-01-31T05:33:29.889Z,99336.31
2019-01-31T05:34:34.705Z,99335.14
2019-01-31T05:35:40.133Z,99338.55
2019-01-31T05:36:45.779Z,99334.48
2019-01-31T05:37:51.272Z,99337.59
2019-01-31T05:38:56.418Z,99343.72
2019-01-31T05:40:01.633Z,99337.33
2019-01-31T05:41:06.394Z,99342.73
2019-01-31T05:42:11.703Z,99338.55
2019-01-31T05:43:16.645Z,99339.88
2019-01-31T05:44:21.839Z,99341.00
2019-01-31T05:45:26.331Z,99340.62
2019-01-31T05:46:31.481Z,99341.06
2019-01-31T05:47:37.319Z,99337.53
2019-01-31T05:48:42.520Z,99337.47
2019-01-31T05:49:47.273Z,99342.79
2019-01-31T05:50:52.445Z,99346.98
2019-01-31T05:51:57.617Z,99343.40
2019-01-31T05:53:02.384Z,99349.45
2019-01-31T05:54:07.832Z,99351.09
2019-01-31T05:55:13.027Z,99344.78
2019-01-31T05:56:18.198Z,99353.72
2019-01-31T05:57:23.071Z,99348.91
2019-01-31T05:58:27.820Z,99342.33
2019-01-31T05:59:32.677Z,99346.04
2019-01-31T06:00:39.622Z,99346.05
2019-01-31T06:01:44.685Z,99348.86
2019-01-31T06:02:49.851Z,99352.30
2019-01-31T06:03:54.512Z,99357.22
2019-01-31T06:04:59.907Z,99352.77
2019-01-31T06:06:04.648Z,99357.36
2019-01-31T06:07:11.482Z,99357.76
2019-01-31T06:08:17.141Z,99353.05
2019-01-31T06:09:22.137Z,99360.63
2019-01-31T06:10:26.729Z,99355.52
2019-01-31T06:11:31.897Z,99359.89
2019-01-31T06:12:37.149Z,99361.62
2019-01-31T06:13:42.167Z,99356.30
2019-01-31T06:14:47.834Z,99356.04
2019-01-31T06:15:52.587Z,99355.09
2019-01-31T06:16:57.939Z,99359.98
2019-01-31T06:18:03.471Z,99353.85
2019-01-31T06:19:08.570Z,99353.85
2019-01-31T06:20:16.049Z,99354.05
2019-01-31T06:21:21.230Z,99353.44
2019-01-31T06:22:26.732Z,99355.69
2019-01-31T06:23:32.265Z,99356.09
2019-01-31T06:24:37.798Z,99356.16
2019-01-31T06:25:42.607Z,99352.97
2019-01-31T06:26:48.470Z,99354.92
2019-01-31T06:27:53.238Z,99357.97
2019-01-31T06:28:57.989Z,99357.45
2019-01-31T06:30:03.359Z,99358.31
2019-01-31T06:31:08.522Z,99359.89
2019-01-31T06:32:13.951Z,99355.64
2019-01-31T06:33:18.707Z,99352.11
2019-01-31T06:34:23.856Z,99350.67
2019-01-31T06:35:29.359Z,99352.91
2019-01-31T06:36:34.512Z,99349.47
2019-01-31T06:37:39.719Z,99359.44
2019-01-31T06:38:44.589Z,99360.37
2019-01-31T06:39:49.062Z,99359.52
2019-01-31T06:40:54.221Z,99358.23
2019-01-31T06:41:59.459Z,99359.89
2019-01-31T06:43:04.616Z,99358.63
2019-01-31T06:44:09.531Z,99360.50
2019-01-31T06:45:19.223Z,99354.72
2019-01-31T06:46:23.842Z,99359.69
2019-01-31T06:47:28.329Z,99363.08
2019-01-31T06:48:34.118Z,99362.88
2019-01-31T06:49:39.041Z,99366.21
2019-01-31T06:50:44.685Z,99362.42
2019-01-31T06:51:49.787Z,99365.43
2019-01-31T06:52:54.461Z,99363.36
2019-01-31T06:53:59.299Z,99368.73
2019-01-31T06:55:04.471Z,99368.08
2019-01-31T06:56:09.298Z,99368.94
2019-01-31T06:57:14.102Z,99379.45
2019-01-31T06:58:19.730Z,99377.58
2019-01-31T06:59:24.548Z,99381.86
2019-01-31T07:00:29.293Z,99373.80
2019-01-31T07:01:34.095Z,99375.74
2019-01-31T07:02:39.934Z,99375.40
2019-01-31T07:03:44.438Z,99373.73
2019-01-31T07:04:49.588Z,99372.66
2019-01-31T07:05:54.358Z,99371.41
2019-01-31T07:06:59.122Z,99375.45
2019-01-31T07:08:04.808Z,99379.10
2019-01-31T07:09:12.040Z,99375.92
2019-01-31T07:10:19.680Z,99379.33
2019-01-31T07:11:30.154Z,99377.18
2019-01-31T07:12:31.303Z,99375.25
2019-01-31T07:13:36.298Z,99379.45
2019-01-31T07:14:41.452Z,99387.89
2019-01-31T07:15:46.697Z,99389.44
2019-01-31T07:16:51.488Z,99392.09
2019-01-31T07:17:56.577Z,99394.88
2019-01-31T07:19:01.667Z,99397.95
2019-01-31T07:20:06.887Z,99392.49
2019-01-31T07:21:12.546Z,99388.55
2019-01-31T07:22:17.450Z,99385.05
2019-01-31T07:23:22.741Z,99392.09
2019-01-31T07:24:27.597Z,99394.27
2019-01-31T07:25:33.095Z,99392.75
2019-01-31T07:26:41.379Z,99392.23
2019-01-31T07:27:45.401Z,99398.48
2019-01-31T07:28:50.504Z,99396.40
2019-01-31T07:29:55.537Z,99399.21
2019-01-31T07:31:00.385Z,99403.31
2019-01-31T07:32:05.716Z,99398.27
2019-01-31T07:33:10.486Z,99405.52
2019-01-31T07:34:14.992Z,99395.20
2019-01-31T07:35:19.821Z,99399.19
2019-01-31T07:36:24.931Z,99402.80
2019-01-31T07:37:29.680Z,99402.53
2019-01-31T07:38:34.445Z,99401.67
2019-01-31T07:39:39.342Z,99403.77
2019-01-31T07:40:44.184Z,99407.23
2019-01-31T07:41:49.233Z,99404.58
2019-01-31T07:42:54.376Z,99402.53
2019-01-31T07:43:59.142Z,99403.18
2019-01-31T07:45:04.613Z,99398.73
2019-01-31T07:46:09.434Z,99401.45
2019-01-31T07:47:13.925Z,99402.56
2019-01-31T07:48:19.078Z,99403.70
2019-01-31T07:49:23.768Z,99401.70
2019-01-31T07:50:28.533Z,99406.17
2019-01-31T07:51:33.278Z,99407.50
2019-01-31T07:52:38.419Z,99410.02
2019-01-31T07:53:43.543Z,99409.64
2019-01-31T07:54:48.679Z,99410.02
2019-01-31T07:55:54.141Z,99406.03
2019-01-31T07:56:59.211Z,99410.10
2019-01-31T07:58:04.309Z,99409.02
2019-01-31T07:59:09.427Z,99406.59
2019-01-31T08:00:15.443Z,99408.54
2019-01-31T08:01:20.069Z,99415.52
2019-01-31T08:02:24.544Z,99406.67
2019-01-31T08:03:30.231Z,99408.10
2019-01-31T08:04:35.335Z,99409.99
2019-01-31T08:05:40.105Z,99407.99
2019-01-31T08:06:44.874Z,99412.38
2019-01-31T08:07:50.063Z,99409.37
2019-01-31T08:08:55.136Z,99415.82
2019-01-31T08:10:00.362Z,99416.94
2019-01-31T08:11:05.456Z,99411.22
2019-01-31T08:12:10.590Z,99414.28
2019-01-31T08:13:15.782Z,99404.72
2019-01-31T08:14:20.833Z,99410.66
2019-01-31T08:15:26.113Z,99405.59
2019-01-31T08:16:30.582Z,99408.36
2019-01-31T08:17:35.987Z,99401.34
2019-01-31T08:18:41.026Z,99406.98
2019-01-31T08:19:46.133Z,99397.02
2019-01-31T08:20:51.208Z,99403.06
2019-01-31T08:21:56.285Z,99403.59
2019-01-31T08:23:01.303Z,99400.23
2019-01-31T08:24:06.055Z,99401.67
2019-01-31T08:25:12.048Z,99399.54
2019-01-31T08:26:17.118Z,99399.13
2019-01-31T08:27:21.706Z,99398.73
2019-01-31T08:28:26.179Z,99395.33
2019-01-31T08:29:31.370Z,99402.88
2019-01-31T08:30:38.354Z,99400.17
2019-01-31T08:31:43.476Z,99399.61
2019-01-31T08:32:48.560Z,99403.19
2019-01-31T08:33:53.756Z,99396.44
2019-01-31T08:34:58.812Z,99396.84
2019-01-31T08:36:03.575Z,99398.61
2019-01-31T08:37:11.678Z,99393.14
2019-01-31T08:38:17.290Z,99396.55
2019-01-31T08:39:22.770Z,99397.13
2019-01-31T08:40:27.904Z,99394.02
2019-01-31T08:41:32.827Z,99391.47
2019-01-31T08:42:37.576Z,99400.50
2019-01-31T08:43:42.387Z,99392.52
2019-01-31T08:44:47.171Z,99393.71
2019-01-31T08:45:51.951Z,99403.10
2019-01-31T08:46:56.708Z,99399.30
2019-01-31T08:48:01.862Z,99401.48
2019-01-31T08:49:06.469Z,99399.63
2019-01-31T08:50:14.254Z,99399.22
2019-01-31T08:51:19.077Z,99408.44
2019-01-31T08:52:24.620Z,99398.81
2019-01-31T08:53:29.380Z,99404.18
2019-01-31T08:54:34.223Z,99403.41
2019-01-31T08:55:39.629Z,99400.70
2019-01-31T08:56:44.991Z,99401.06
2019-01-31T08:57:50.191Z,99401.05
2019-01-31T08:58:55.373Z,99399.63
2019-01-31T09:00:00.492Z,99398.99
2019-01-31T09:01:05.612Z,99396.28
2019-01-31T09:02:12.495Z,99396.73
2019-01-31T09:03:17.374Z,99392.78
2019-01-31T09:04:23.043Z,99392.15
2019-01-31T09:05:28.031Z,99396.50
2019-01-31T09:06:32.971Z,99394.47
2019-01-31T09:07:38.050Z,99392.78
2019-01-31T09:08:43.522Z,99398.78
2019-01-31T09:09:48.718Z,99394.64
2019-01-31T09:10:56.413Z,99397.22
2019-01-31T09:12:01.165Z,99396.86
2019-01-31T09:13:08.268Z,99398.63
2019-01-31T09:14:14.415Z,99392.39
2019-01-31T09:15:24.147Z,99395.66
2019-01-31T09:16:29.699Z,99387.89
2019-01-31T09:17:34.222Z,99386.36
2019-01-31T09:18:39.600Z,99384.48
2019-01-31T09:19:44.530Z,99386.06
2019-01-31T09:20:59.831Z,99387.12
2019-01-31T09:22:34.600Z,99382.57
2019-01-31T09:24:27.226Z,99385.09
2019-01-31T09:26:18.392Z,99384.08
2019-01-31T09:27:54.438Z,99380.47
2019-01-31T09:29:32.062Z,99388.81
2019-01-31T09:31:17.050Z,99383.77
2019-01-31T09:32:57.176Z,99384.49
2019-01-31T09:34:33.345Z,99386.45
2019-01-31T09:36:28.498Z,99386.30
2019-01-31T09:38:10.690Z,99382.50
2019-01-31T09:40:14.967Z,99390.47
2019-01-31T09:41:47.143Z,99388.75
2019-01-31T09:43:02.189Z,99392.85
2019-01-31T09:44:49.078Z,99392.60
2019-01-31T09:46:34.120Z,99387.41
2019-01-31T09:47:46.857Z,99388.64
2019-01-31T09:49:05.334Z,99390.50
2019-01-31T09:50:57.202Z,99390.78
2019-01-31T09:52:54.670Z,99393.45
2019-01-31T09:54:13.994Z,99388.52
2019-01-31T09:56:09.117Z,99385.21
2019-01-31T09:58:10.678Z,99385.53
2019-01-31T09:59:49.407Z,99386.42
2019-01-31T10:01:40.462Z,99387.50
2019-01-31T10:03:34.633Z,99391.41
2019-01-31T10:04:51.316Z,99386.07
2019-01-31T10:06:30.718Z,99383.77
2019-01-31T10:08:02.424Z,99382.04
2019-01-31T10:09:45.298Z,99380.77
2019-01-31T10:11:05.933Z,99378.70
2019-01-31T10:12:42.565Z,99383.63
2019-01-31T10:14:34.249Z,99383.04
2019-01-31T10:16:27.367Z,99385.63
2019-01-31T10:18:14.549Z,99388.48
2019-01-31T10:19:49.335Z,99386.03
2019-01-31T10:21:31.495Z,99380.83
2019-01-31T10:23:09.854Z,99381.55
2019-01-31T10:25:11.060Z,99376.23
2019-01-31T10:26:59.449Z,99375.02
2019-01-31T10:28:36.577Z,99380.72
2019-01-31T10:30:19.278Z,99378.42
2019-01-31T10:31:59.833Z,99375.96
2019-01-31T10:33:56.482Z,99373.17
2019-01-31T10:35:43.314Z,99376.02
2019-01-31T10:37:38.456Z,99371.21
2019-01-31T10:39:08.970Z,99373.31
2019-01-31T10:40:48.633Z,99373.92
2019-01-31T10:42:50.396Z,99373.19
2019-01-31T10:44:30.274Z,99375.86
2019-01-31T10:46:00.198Z,99370.73
2019-01-31T10:47:42.593Z,99362.63
2019-01-31T10:49:27.681Z,99360.25
2019-01-31T10:51:05.112Z,99357.92
2019-01-31T10:52:44.690Z,99359.35
2019-01-31T10:54:20.465Z,99358.70
2019-01-31T10:56:21.458Z,99356.56
2019-01-31T10:58:09.734Z,99350.78
2019-01-31T10:59:49.661Z,99349.70
2019-01-31T11:01:33.109Z,99342.59
2019-01-31T11:03:11.770Z,99345.34
2019-01-31T11:04:57.088Z,99339.27
2019-01-31T11:06:40.009Z,99338.56
2019-01-31T11:08:08.981Z,99336.56
2019-01-31T11:10:41.988Z,99334.69
2019-01-31T11:12:38.670Z,99335.61
2019-01-31T11:14:45.447Z,99325.83
2019-01-31T11:16:38.233Z,99328.04
2019-01-31T11:18:17.004Z,99325.14
2019-01-31T11:19:41.834Z,99318.87
2019-01-31T11:21:36.147Z,99324.69
2019-01-31T11:23:33.025Z,99320.95
2019-01-31T11:25:15.349Z,99329.02
2019-01-31T11:26:39.292Z,99323.70
2019-01-31T11:28:09.139Z,99324.27
2019-01-31T11:29:31.015Z,99328.13
2019-01-31T11:31:05.137Z,99317.32
2019-01-31T11:32:39.480Z,99320.76
2019-01-31T11:34:33.038Z,99320.32
2019-01-31T11:36:22.707Z,99313.84
2019-01-31T11:38:07.979Z,99314.67
2019-01-31T11:39:44.983Z,99314.82
2019-01-31T11:41:29.569Z,99315.64
2019-01-31T11:43:24.556Z,99320.17
2019-01-31T11:45:22.728Z,99311.92
2019-01-31T11:46:54.353Z,99309.05
2019-01-31T11:48:15.364Z,99309.35
2019-01-31T11:49:42.123Z,99305.31
2019-01-31T11:51:30.865Z,99317.09
2019-01-31T11:53:27.767Z,99306.47
2019-01-31T11:55:03.041Z,99311.14
2019-01-31T11:56:51.736Z,99313.37
2019-01-31T11:58:36.344Z,99308.54
2019-01-31T11:59:41.538Z,99310.80
2019-01-31T12:00:46.343Z,99305.80
2019-01-31T12:01:51.197Z,99309.45
2019-01-31T12:02:55.969Z,99311.94
2019-01-31T12:04:14.905Z,99311.52
2019-01-31T12:05:20.250Z,99312.38
2019-01-31T12:06:25.129Z,99315.88
2019-01-31T12:07:30.631Z,99314.42
2019-01-31T12:08:35.423Z,99310.09
2019-01-31T12:09:40.538Z,99304.36
2019-01-31T12:10:46.065Z,99310.66
2019-01-31T12:11:50.934Z,99312.23
2019-01-31T12:12:55.763Z,99303.47
2019-01-31T12:14:00.263Z,99309.94
2019-01-31T12:15:05.794Z,99310.89
2019-01-31T12:16:10.310Z,99308.76
2019-01-31T12:17:15.811Z,99314.86
2019-01-31T12:18:20.911Z,99310.45
2019-01-31T12:19:26.127Z,99309.28
2019-01-31T12:20:31.243Z,99308.91
2019-01-31T12:21:36.034Z,99316.02
2019-01-31T12:22:40.799Z,99314.97
2019-01-31T12:23:45.308Z,99311.38
2019-01-31T12:24:50.427Z,99314.02
2019-01-31T12:25:55.246Z,99312.93
2019-01-31T12:27:00.119Z,99316.27
2019-01-31T12:28:05.299Z,99312.65
2019-01-31T12:29:09.772Z,99317.33
2019-01-31T12:30:20.703Z,99305.13
2019-01-31T12:31:26.201Z,99309.48
2019-01-31T12:32:30.989Z,99309.48
2019-01-31T12:33:35.766Z,99309.17
2019-01-31T12:34:43.105Z,99310.41
2019-01-31T12:35:48.016Z,99310.58
2019-01-31T12:36:53.217Z,99316.67
2019-01-31T12:37:58.638Z,99310.51
2019-01-31T12:39:03.244Z,99310.38
2019-01-31T12:40:10.802Z,99309.62
2019-01-31T12:41:15.938Z,99307.55
2019-01-31T12:42:21.045Z,99305.52
2019-01-31T12:43:34.833Z,99310.25
2019-01-31T12:44:33.219Z,99308.95
2019-01-31T12:45:37.806Z,99301.95
2019-01-31T12:46:42.607Z,99301.22
2019-01-31T12:47:47.422Z,99302.77
2019-01-31T12:48:52.937Z,99306.23
2019-01-31T12:49:57.728Z,99302.50
2019-01-31T12:51:02.990Z,99296.80
2019-01-31T12:52:08.120Z,99299.99
2019-01-31T12:53:13.215Z,99300.28
2019-01-31T12:54:18.245Z,99300.75
2019-01-31T12:55:23.102Z,99300.30
2019-01-31T12:56:27.877Z,99296.56
2019-01-31T12:57:32.801Z,99299.70
2019-01-31T12:58:37.590Z,99302.27
2019-01-31T12:59:42.361Z,99295.97
2019-01-31T13:00:47.328Z,99301.84
2019-01-31T13:01:52.840Z,99295.06
2019-01-31T13:02:57.732Z,99297.25
2019-01-31T13:04:02.886Z,99296.20
2019-01-31T13:05:08.255Z,99300.57
2019-01-31T13:06:12.733Z,99293.78
2019-01-31T13:07:18.151Z,99293.63
2019-01-31T13:08:23.354Z,99293.08
2019-01-31T13:09:28.528Z,99291.83
2019-01-31T13:10:34.165Z,99291.38
2019-01-31T13:11:39.310Z,99297.31
2019-01-31T13:12:48.795Z,99290.77
2019-01-31T13:13:51.294Z,99293.08
2019-01-31T13:14:56.347Z,99288.49
2019-01-31T13:16:01.215Z,99290.70
2019-01-31T13:17:06.313Z,99295.23
2019-01-31T13:18:11.913Z,99296.44
2019-01-31T13:19:16.663Z,99290.98
2019-01-31T13:20:23.660Z,99292.41
2019-01-31T13:21:28.139Z,99289.42
2019-01-31T13:22:32.948Z,99289.42
2019-01-31T13:23:38.087Z,99290.66
2019-01-31T13:24:43.233Z,99293.27
2019-01-31T13:25:48.390Z,99291.47
2019-01-31T13:26:52.908Z,99293.52
2019-01-31T13:27:57.690Z,99290.92
2019-01-31T13:29:02.877Z,99293.85
2019-01-31T13:30:08.986Z,99290.64
2019-01-31T13:31:13.733Z,99292.30
2019-01-31T13:32:18.529Z,99287.63
2019-01-31T13:33:23.686Z,99290.20
2019-01-31T13:34:29.265Z,99294.79
2019-01-31T13:35:34.033Z,99288.32
2019-01-31T13:36:39.136Z,99293.94
2019-01-31T13:37:44.285Z,99293.47
2019-01-31T13:38:49.001Z,99292.91
2019-01-31T13:39:54.154Z,99288.77
2019-01-31T13:40:59.383Z,99287.70
2019-01-31T13:42:04.260Z,99286.48
2019-01-31T13:43:09.373Z,99282.67
2019-01-31T13:44:14.156Z,99286.55
2019-01-31T13:45:21.390Z,99284.83
2019-01-31T13:46:26.664Z,99287.48
2019-01-31T13:47:31.660Z,99286.71
2019-01-31T13:48:36.917Z,99284.77
2019-01-31T13:49:42.017Z,99285.75
2019-01-31T13:50:47.279Z,99284.33
2019-01-31T13:51:52.499Z,99286.98
2019-01-31T13:52:57.618Z,99291.22
2019-01-31T13:54:02.403Z,99291.31
2019-01-31T13:55:10.062Z,99286.66
2019-01-31T13:56:15.004Z,99287.48
2019-01-31T13:57:20.249Z,99284.25
2019-01-31T13:58:24.840Z,99291.03
2019-01-31T13:59:30.348Z,99285.55
2019-01-31T14:00:34.837Z,99280.48
2019-01-31T14:01:39.599Z,99278.32
2019-01-31T14:02:44.079Z,99279.20
2019-01-31T14:03:48.885Z,99276.55
2019-01-31T14:04:54.704Z,99280.81
2019-01-31T14:05:59.868Z,99272.56
2019-01-31T14:07:04.491Z,99276.28
2019-01-31T14:08:09.328Z,99272.31
2019-01-31T14:09:14.291Z,99272.78
2019-01-31T14:10:21.122Z,99274.37
2019-01-31T14:11:25.983Z,99276.44
2019-01-31T14:12:31.493Z,99269.41
2019-01-31T14:13:36.258Z,99270.85
2019-01-31T14:14:41.505Z,99267.37
2019-01-31T14:15:46.503Z,99268.00
2019-01-31T14:16:50.986Z,99271.93
2019-01-31T14:17:56.237Z,99272.10
2019-01-31T14:19:00.732Z,99276.78
2019-01-31T14:20:06.782Z,99274.75
2019-01-31T14:21:12.264Z,99277.33
2019-01-31T14:22:17.362Z,99273.81
2019-01-31T14:23:22.458Z,99267.78
2019-01-31T14:24:27.717Z,99272.54
2019-01-31T14:25:32.232Z,99265.76
2019-01-31T14:26:36.983Z,99271.34
2019-01-31T14:27:41.878Z,99265.84
2019-01-31T14:28:46.990Z,99270.13
2019-01-31T14:29:52.218Z,99264.56
2019-01-31T14:30:57.003Z,99268.52
2019-01-31T14:32:01.487Z,99263.55
2019-01-31T14:33:11.245Z,99264.84
2019-01-31T14:34:16.122Z,99264.10
2019-01-31T14:35:21.523Z,99266.15
2019-01-31T14:36:26.474Z,99273.14
2019-01-31T14:37:31.225Z,99269.53
2019-01-31T14:38:36.728Z,99271.87
2019-01-31T14:39:41.830Z,99272.41
2019-01-31T14:40:46.578Z,99269.38
2019-01-31T14:41:51.373Z,99274.73
2019-01-31T14:42:56.159Z,99275.59
2019-01-31T14:44:00.940Z,99276.31
2019-01-31T14:45:06.001Z,99270.88
2019-01-31T14:46:10.788Z,99268.60
2019-01-31T14:47:15.562Z,99266.98
2019-01-31T14:48:20.638Z,99269.50
2019-01-31T14:49:25.128Z,99270.39
2019-01-31T14:50:31.455Z,99268.36
2019-01-31T14:51:35.969Z,99270.52
2019-01-31T14:52:41.529Z,99266.67
2019-01-31T14:53:47.085Z,99267.63
2019-01-31T14:54:51.827Z,99269.63
2019-01-31T14:55:56.447Z,99271.41
2019-01-31T14:57:01.528Z,99271.03
2019-01-31T14:58:07.506Z,99276.70
2019-01-31T14:59:12.407Z,99271.10
2019-01-31T15:00:19.576Z,99269.86
2019-01-31T15:01:24.695Z,99268.55
2019-01-31T15:02:29.886Z,99270.27
2019-01-31T15:03:34.978Z,99271.99
2019-01-31T15:04:39.748Z,99271.13
2019-01-31T15:05:44.275Z,99269.63
2019-01-31T15:06:49.088Z,99268.49